Time;durP1;ratioP1;P1;durP2;ratioP2;P2;SDS_P1;SDS_P2;PMS_P1;PMS_P2;Temp;Humidity;BMP_temperature;BMP_pressure;BME280_temperature;BME280_humidity;BME280_pressure;Samples;Min_cycle;Max_cycle;Signal;HPM_P1;HPM_P2
2022/11/28 00:02:01;;;;;;;;;68.75;54.00;;;;;11.47;53.35;100200.84;5069782;28;8836;-76
2022/11/28 00:04:30;;;;;;;;;71.50;55.75;;;;;11.47;53.12;100203.47;5086735;28;8957;-75
2022/11/28 00:06:58;;;;;;;;;71.00;55.75;;;;;11.48;52.91;100204.34;5093146;28;9749;-74
2022/11/28 00:09:27;;;;;;;;;72.25;57.25;;;;;11.48;53.40;100207.81;5089431;28;8877;-76
2022/11/28 00:11:56;;;;;;;;;68.50;53.50;;;;;11.49;53.52;100201.72;5087477;28;8877;-76
2022/11/28 00:14:26;;;;;;;;;76.75;55.25;;;;;11.37;53.49;100203.38;5075246;28;8852;-75
2022/11/28 00:16:55;;;;;;;;;69.75;55.75;;;;;11.38;53.76;100194.66;5084419;28;8939;-76
2022/11/28 00:19:23;;;;;;;;;64.00;52.00;;;;;11.26;53.41;100204.16;5067846;28;8892;-75
2022/11/28 00:21:52;;;;;;;;;72.00;55.75;;;;;11.25;53.48;100206.78;5080538;28;8979;-76
2022/11/28 00:24:20;;;;;;;;;66.50;52.00;;;;;11.08;54.39;100207.53;5047375;28;8888;-76
2022/11/28 00:26:49;;;;;;;;;60.25;48.00;;;;;11.07;54.32;100210.97;5048911;28;8870;-75
2022/11/28 00:29:18;;;;;;;;;75.75;57.50;;;;;11.05;54.30;100206.63;5063849;28;8987;-75
2022/11/28 00:31:48;;;;;;;;;73.00;55.50;;;;;11.14;54.66;100211.91;5053876;28;8837;-75
2022/11/28 00:34:16;;;;;;;;;70.75;54.75;;;;;11.03;54.11;100210.97;5052461;28;8926;-75
2022/11/28 00:36:46;;;;;;;;;69.75;55.25;;;;;10.95;54.73;100212.63;5063029;28;8850;-74
2022/11/28 00:39:16;;;;;;;;;72.00;57.50;;;;;11.08;54.56;100214.50;5066445;28;8832;-74
2022/11/28 00:41:45;;;;;;;;;70.25;56.75;;;;;11.04;54.62;100218.81;5066862;28;8856;-74
2022/11/28 00:44:14;;;;;;;;;75.00;58.75;;;;;11.03;54.63;100205.75;5075562;28;8856;-74
2022/11/28 00:46:43;;;;;;;;;76.75;57.25;;;;;11.06;54.68;100211.00;5077021;28;8852;-76
2022/11/28 00:49:13;;;;;;;;;73.00;57.00;;;;;11.06;54.71;100208.38;5029904;28;8866;-76
2022/11/28 00:51:41;;;;;;;;;68.75;56.25;;;;;11.06;54.16;100214.47;5045941;28;8960;-76
2022/11/28 00:54:10;;;;;;;;;72.50;57.25;;;;;11.09;54.57;100213.59;5045527;28;8846;-75
2022/11/28 00:56:40;;;;;;;;;55.25;41.25;;;;;11.12;54.81;100211.91;5032260;28;8868;-76
2022/11/28 00:59:09;;;;;;;;;71.50;53.50;;;;;11.11;54.79;100210.16;5048988;28;8893;-74
2022/11/28 01:01:40;;;;;;;;;69.75;55.75;;;;;11.14;54.49;100211.91;5030667;28;8902;-75
2022/11/28 01:04:11;;;;;;;;;66.25;52.75;;;;;11.10;54.38;100211.03;5048926;28;8930;-75
2022/11/28 01:06:44;;;;;;;;;63.75;52.50;;;;;11.11;54.87;100198.84;5028386;28;8888;-75
2022/11/28 01:09:15;;;;;;;;;60.00;47.00;;;;;11.06;54.14;100195.34;5045441;28;9691;-76
2022/11/28 01:11:45;;;;;;;;;62.00;48.75;;;;;11.00;54.65;100200.47;5011912;28;8955;-76
2022/11/28 01:14:14;;;;;;;;;72.25;54.00;;;;;10.97;54.18;100190.03;5044858;28;8852;-77
2022/11/28 01:16:42;;;;;;;;;70.50;54.25;;;;;10.92;54.52;100198.69;5045061;28;8878;-74
2022/11/28 01:19:12;;;;;;;;;64.75;51.25;;;;;10.84;54.93;100204.72;5031664;28;8834;-76
2022/11/28 01:21:43;;;;;;;;;60.75;48.50;;;;;10.75;54.97;100204.63;5048926;28;8842;-76
2022/11/28 01:24:11;;;;;;;;;65.00;49.25;;;;;10.76;54.57;100206.38;5031963;28;9004;-75
2022/11/28 01:26:42;;;;;;;;;68.00;52.25;;;;;10.77;55.22;100202.91;5062034;28;8865;-76
2022/11/28 01:29:11;;;;;;;;;42.25;35.25;;;;;10.80;54.76;100195.97;5045508;28;8881;-74
2022/11/28 01:31:40;;;;;;;;;61.50;48.25;;;;;10.83;54.75;100196.00;5045456;28;9626;-75
2022/11/28 01:34:09;;;;;;;;;61.00;47.00;;;;;10.82;54.90;100193.38;5028819;28;8910;-76
2022/11/28 01:36:37;;;;;;;;;61.75;47.00;;;;;10.87;54.30;100199.53;5061354;28;8889;-74
2022/11/28 01:39:09;;;;;;;;;56.25;45.75;;;;;10.75;55.11;100192.44;5074867;28;8851;-75
2022/11/28 01:41:38;;;;;;;;;61.00;48.75;;;;;10.76;55.39;100190.72;5050231;28;8906;-75
2022/11/28 01:44:50;;;;;;;;;59.00;48.75;;;;;10.96;54.69;100189.13;5031319;28;9051;-75
2022/11/28 01:47:24;;;;;;;;;63.75;52.25;;;;;10.87;54.90;100183.88;4993157;28;8963;-75
2022/11/28 01:49:55;;;;;;;;;61.50;49.25;;;;;10.84;54.93;100183.84;5009464;28;8858;-75
2022/11/28 01:52:24;;;;;;;;;61.50;49.75;;;;;10.84;54.93;100176.88;5015053;28;8902;-75
2022/11/28 01:54:59;;;;;;;;;61.50;49.25;;;;;10.93;54.30;100169.13;4996455;28;8843;-75
2022/11/28 01:57:29;;;;;;;;;64.00;52.25;;;;;10.88;54.81;100172.56;5028877;28;8859;-75
2022/11/28 02:00:04;;;;;;;;;61.00;49.00;;;;;10.90;54.85;100170.84;5028659;28;8977;-78
2022/11/28 02:02:45;;;;;;;;;58.50;48.50;;;;;10.92;54.66;100169.09;4996381;28;8984;-75
2022/11/28 02:05:14;;;;;;;;;69.00;53.75;;;;;10.86;54.63;100169.06;5048445;28;8936;-76
2022/11/28 02:07:44;;;;;;;;;65.75;52.75;;;;;10.85;54.51;100164.69;5048772;28;8836;-76
2022/11/28 02:10:18;;;;;;;;;63.00;49.25;;;;;10.87;54.91;100158.66;5047659;28;8881;-75
2022/11/28 02:13:04;;;;;;;;;64.25;50.75;;;;;10.92;54.56;100162.16;5032335;28;8873;-75
2022/11/28 02:15:47;;;;;;;;;61.25;48.75;;;;;10.84;54.76;100162.97;5018636;28;9593;-74
2022/11/28 02:18:33;;;;;;;;;68.75;49.00;;;;;10.81;54.90;100158.59;5048800;28;8882;-76
2022/11/28 02:21:35;;;;;;;;;56.00;46.75;;;;;10.75;55.05;100150.69;5050574;28;8843;-76
2022/11/28 02:24:47;;;;;;;;;63.25;49.00;;;;;10.79;55.14;100151.59;5047531;28;8836;-76
2022/11/28 02:27:29;;;;;;;;;64.00;50.00;;;;;10.61;55.25;100140.16;5071436;28;8866;-77
2022/11/28 02:30:14;;;;;;;;;64.75;49.25;;;;;10.70;54.58;100144.59;5054580;28;8842;-75
2022/11/28 02:33:00;;;;;;;;;64.00;51.50;;;;;10.67;55.19;100134.13;5081136;28;8873;-75
2022/11/28 02:35:38;;;;;;;;;65.75;50.75;;;;;10.54;55.02;100127.91;5082150;28;8842;-75
2022/11/28 02:38:17;;;;;;;;;57.50;43.00;;;;;10.56;55.76;100123.59;5075197;28;8873;-75
2022/11/28 02:40:53;;;;;;;;;60.00;46.25;;;;;10.43;55.34;100132.16;5071213;28;8862;-76
2022/11/28 02:43:30;;;;;;;;;66.75;49.75;;;;;10.30;56.05;100120.69;5070921;28;8885;-75
2022/11/28 02:46:04;;;;;;;;;65.25;49.50;;;;;10.20;56.34;100124.94;5070407;28;8839;-75
2022/11/28 02:48:40;;;;;;;;;70.00;52.25;;;;;10.03;57.14;100127.38;5069473;28;8854;-78
2022/11/28 02:51:15;;;;;;;;;61.00;47.00;;;;;10.04;56.96;100117.84;5070344;28;8858;-75
2022/11/28 02:53:45;;;;;;;;;57.75;46.00;;;;;9.98;56.68;100115.16;5070743;28;8877;-75
2022/11/28 02:56:14;;;;;;;;;64.25;50.50;;;;;9.98;56.75;100120.38;5070227;28;8953;-75
2022/11/28 02:58:43;;;;;;;;;59.25;45.50;;;;;9.93;57.06;100107.31;5069057;28;8846;-76
2022/11/28 03:01:17;;;;;;;;;57.00;44.50;;;;;9.82;57.46;100112.38;5068893;28;8869;-75
2022/11/28 03:04:03;;;;;;;;;60.50;47.75;;;;;9.64;57.93;100104.34;5070333;28;8912;-76
2022/11/28 03:06:42;;;;;;;;;60.50;47.25;;;;;9.48;58.38;100105.88;5070029;28;8862;-76
2022/11/28 03:09:49;;;;;;;;;62.25;48.75;;;;;9.46;58.64;100095.44;5052426;28;9630;-76
2022/11/28 03:12:29;;;;;;;;;61.00;49.00;;;;;9.30;59.41;100103.91;5007690;28;9632;-75
2022/11/28 03:15:00;;;;;;;;;49.25;43.25;;;;;9.32;58.80;100095.28;5007002;28;8862;-74
2022/11/28 03:17:38;;;;;;;;;51.75;41.75;;;;;9.22;59.57;100101.19;5008306;28;8847;-76
2022/11/28 03:20:19;;;;;;;;;43.00;39.25;;;;;9.27;59.04;100098.69;5007911;28;8866;-76
2022/11/28 03:23:03;;;;;;;;;52.25;44.25;;;;;9.31;58.91;100098.72;4944769;28;8878;-73
2022/11/28 03:25:37;;;;;;;;;45.00;37.80;;;;;9.25;59.17;100105.59;5013777;28;8924;-75
2022/11/28 03:28:12;;;;;;;;;57.50;45.50;;;;;9.10;59.54;100111.44;5003348;28;8838;-73
2022/11/28 03:30:46;;;;;;;;;50.50;43.75;;;;;9.08;59.55;100114.03;5012317;28;8854;-75
2022/11/28 03:33:17;;;;;;;;;51.00;42.25;;;;;9.10;59.42;100107.13;4975590;28;8834;-75
2022/11/28 03:35:52;;;;;;;;;51.50;42.25;;;;;9.04;59.44;100108.75;4990983;28;8870;-74
2022/11/28 03:38:25;;;;;;;;;51.00;39.75;;;;;9.03;59.81;100102.66;5007121;28;8850;-75
2022/11/28 03:40:58;;;;;;;;;50.50;41.75;;;;;9.26;58.97;100103.03;4974814;28;8874;-75
2022/11/28 03:43:34;;;;;;;;;43.75;35.75;;;;;9.29;59.02;100109.97;4991340;28;8888;-75
2022/11/28 03:46:08;;;;;;;;;56.50;46.25;;;;;9.24;59.16;100111.63;4991042;28;8882;-76
2022/11/28 03:48:40;;;;;;;;;49.00;42.50;;;;;9.27;58.77;100103.88;5053471;28;8862;-76
2022/11/28 03:51:16;;;;;;;;;55.25;46.50;;;;;9.42;58.76;100103.22;5069731;28;8866;-75
2022/11/28 03:53:51;;;;;;;;;56.50;45.25;;;;;9.31;59.09;100097.88;5033901;28;8872;-75
2022/11/28 03:56:25;;;;;;;;;48.50;36.75;;;;;9.34;58.85;100096.19;5069270;28;8866;-76
2022/11/28 03:59:00;;;;;;;;;59.25;46.75;;;;;9.22;59.70;100105.53;5068217;28;8896;-77
2022/11/28 04:01:34;;;;;;;;;47.00;41.25;;;;;9.35;59.10;100103.13;5068741;28;8979;-75
2022/11/28 04:04:14;;;;;;;;;55.25;42.00;;;;;9.50;58.68;100099.84;5070184;28;8881;-75
2022/11/28 04:06:56;;;;;;;;;56.75;42.00;;;;;9.66;58.13;100111.34;5087675;28;8871;-75
2022/11/28 04:09:38;;;;;;;;;46.75;41.25;;;;;9.72;58.12;100102.72;5070517;28;9666;-74
2022/11/28 04:12:10;;;;;;;;;46.75;39.00;;;;;9.71;57.94;100101.81;5071634;28;8872;-75
2022/11/28 04:14:44;;;;;;;;;46.75;39.75;;;;;9.77;57.65;100103.63;5051390;28;9647;-76
2022/11/28 04:17:19;;;;;;;;;49.25;43.50;;;;;9.87;57.26;100100.28;5069297;28;8854;-76
2022/11/28 04:19:52;;;;;;;;;61.25;48.00;;;;;9.87;57.38;100104.63;5022376;28;8854;-77
2022/11/28 04:22:28;;;;;;;;;54.00;43.75;;;;;9.85;57.29;100096.81;5084145;28;8844;-75
2022/11/28 04:25:01;;;;;;;;;60.00;47.50;;;;;9.87;56.93;100095.09;5091091;28;8875;-76
2022/11/28 04:27:34;;;;;;;;;59.75;49.75;;;;;9.85;56.96;100095.91;5087856;28;8887;-75
2022/11/28 04:30:06;;;;;;;;;53.00;42.25;;;;;9.80;57.13;100089.78;5070222;28;8955;-76
2022/11/28 04:32:39;;;;;;;;;57.00;43.75;;;;;9.69;57.55;100092.25;5084486;28;8856;-76
2022/11/28 04:35:12;;;;;;;;;48.75;40.25;;;;;9.74;57.40;100093.19;5050513;28;8850;-76
2022/11/28 04:37:47;;;;;;;;;54.75;47.25;;;;;9.47;58.44;100098.91;5068494;28;8854;-76
2022/11/28 04:40:18;;;;;;;;;47.75;38.00;;;;;9.49;58.33;100094.59;5050324;28;8880;-76
2022/11/28 04:42:52;;;;;;;;;54.50;47.00;;;;;9.56;58.49;100097.34;5068368;28;8842;-76
2022/11/28 04:45:26;;;;;;;;;86.00;65.00;;;;;9.52;58.27;100095.53;5068288;28;8866;-76
2022/11/28 04:47:55;;;;;;;;;56.50;42.25;;;;;9.41;58.51;100097.13;5049453;28;8999;-75
2022/11/28 04:50:28;;;;;;;;;57.75;45.25;;;;;9.49;58.27;100099.81;5067792;28;8850;-74
2022/11/28 04:53:04;;;;;;;;;52.25;42.25;;;;;9.56;58.19;100102.53;5088140;28;9589;-75
2022/11/28 04:55:39;;;;;;;;;53.75;41.25;;;;;9.55;57.88;100100.78;5087947;28;8840;-75
2022/11/28 04:58:14;;;;;;;;;53.50;42.00;;;;;9.67;57.69;100100.06;5083096;28;8899;-76
2022/11/28 05:00:44;;;;;;;;;49.50;40.00;;;;;9.56;57.49;100102.53;5070252;28;8846;-75
2022/11/28 05:03:13;;;;;;;;;74.50;60.50;;;;;9.58;57.38;100099.94;5083807;28;8852;-76
2022/11/28 05:05:45;;;;;;;;;52.50;43.00;;;;;9.54;57.33;100103.34;5095415;28;8840;-76
2022/11/28 05:08:15;;;;;;;;;53.75;46.75;;;;;9.48;57.37;100096.34;5085628;28;8981;-75
2022/11/28 05:10:44;;;;;;;;;49.75;42.00;;;;;9.46;57.28;100100.66;5068893;28;8858;-75
2022/11/28 05:13:13;;;;;;;;;50.00;41.50;;;;;9.37;57.37;100100.53;5077269;28;8905;-74
2022/11/28 05:15:42;;;;;;;;;47.00;42.00;;;;;9.31;57.04;100090.91;5047617;28;8869;-75
2022/11/28 05:18:10;;;;;;;;;41.25;38.50;;;;;9.25;57.67;100089.97;5073567;28;8909;-75
2022/11/28 05:20:40;;;;;;;;;47.50;42.75;;;;;9.17;57.96;100082.06;5067296;28;8929;-76
2022/11/28 05:23:08;;;;;;;;;59.00;45.75;;;;;9.15;57.58;100070.78;5066678;28;8842;-75
2022/11/28 05:25:39;;;;;;;;;53.50;44.50;;;;;9.10;57.93;100081.09;5068826;28;9698;-77
2022/11/28 05:28:08;;;;;;;;;67.25;53.00;;;;;9.00;58.02;100076.63;5065171;28;8856;-74
2022/11/28 05:30:37;;;;;;;;;71.25;57.75;;;;;8.95;58.10;100076.53;5092758;28;8855;-75
2022/11/28 05:33:06;;;;;;;;;50.00;43.00;;;;;8.86;58.48;100070.34;5086579;28;8856;-76
2022/11/28 05:35:35;;;;;;;;;45.75;38.75;;;;;8.81;58.58;100067.69;5069671;28;8876;-76
2022/11/28 05:38:03;;;;;;;;;50.75;45.00;;;;;8.83;57.92;100065.06;5079696;28;8963;-76
2022/11/28 05:40:43;;;;;;;;;46.00;39.50;;;;;8.94;57.69;100063.50;5086586;28;8836;-76
2022/11/28 05:43:11;;;;;;;;;49.25;43.00;;;;;9.02;57.66;100063.63;5087894;28;8939;-76
2022/11/28 05:45:40;;;;;;;;;47.75;42.25;;;;;8.93;57.96;100060.03;5087723;28;9628;-75
2022/11/28 05:48:09;;;;;;;;;46.25;41.50;;;;;8.93;57.96;100066.97;5085848;28;8883;-77
2022/11/28 05:50:39;;;;;;;;;48.50;42.25;;;;;8.87;58.17;100062.56;5087632;28;8843;-77
2022/11/28 05:53:08;;;;;;;;;50.75;41.50;;;;;8.75;58.40;100063.25;5070717;28;8835;-77
2022/11/28 05:55:39;;;;;;;;;55.75;40.00;;;;;8.87;57.94;100067.75;5065799;28;8834;-75
2022/11/28 05:58:07;;;;;;;;;35.00;28.00;;;;;8.93;57.80;100053.97;5069769;28;8862;-76
2022/11/28 06:00:36;;;;;;;;;47.25;41.00;;;;;8.92;57.46;100057.41;5053896;28;8874;-76
2022/11/28 06:03:05;;;;;;;;;51.50;42.00;;;;;8.91;57.93;100063.50;5087917;28;9617;-76
2022/11/28 06:05:34;;;;;;;;;49.00;40.50;;;;;8.90;57.84;100057.41;5088591;28;8882;-77
2022/11/28 06:08:12;;;;;;;;;50.25;40.75;;;;;8.76;58.39;100053.72;5093970;28;8888;-77
2022/11/28 06:10:42;;;;;;;;;46.25;41.00;;;;;8.82;57.86;100056.41;5092485;28;8884;-74
2022/11/28 06:13:10;;;;;;;;;40.00;36.25;;;;;8.92;57.88;100052.22;5086815;28;8871;-77
2022/11/28 06:15:42;;;;;;;;;51.00;41.25;;;;;8.76;57.95;100051.13;5066306;28;8892;-75
2022/11/28 06:18:11;;;;;;;;;49.50;41.50;;;;;8.96;57.66;100049.69;5066295;28;8886;-76
2022/11/28 06:20:39;;;;;;;;;36.75;34.25;;;;;8.75;58.12;100050.25;5086615;28;9624;-75
2022/11/28 06:23:08;;;;;;;;;47.00;40.25;;;;;8.62;58.38;100052.63;5085888;28;8860;-74
2022/11/28 06:25:37;;;;;;;;;54.50;41.25;;;;;8.69;58.75;100054.47;5086899;28;8838;-76
2022/11/28 06:28:07;;;;;;;;;49.25;43.25;;;;;8.53;59.19;100058.56;5087028;28;8869;-76
2022/11/28 06:30:35;;;;;;;;;51.00;40.50;;;;;8.49;59.31;100061.97;5086081;28;8844;-76
2022/11/28 06:33:04;;;;;;;;;47.25;39.50;;;;;8.46;59.17;100061.94;5089748;28;8867;-76
2022/11/28 06:35:33;;;;;;;;;48.75;41.00;;;;;8.44;58.94;100067.09;5091237;28;8843;-75
2022/11/28 06:38:01;;;;;;;;;47.75;38.50;;;;;8.51;59.41;100066.34;5089677;28;8901;-76
2022/11/28 06:40:30;;;;;;;;;44.80;39.00;;;;;8.35;59.26;100059.97;5089839;28;8940;-78
2022/11/28 06:42:58;;;;;;;;;52.25;42.00;;;;;8.30;59.14;100059.03;5089074;28;8869;-74
2022/11/28 06:45:29;;;;;;;;;52.00;43.00;;;;;8.27;59.50;100064.16;5086021;28;8831;-75
2022/11/28 06:47:57;;;;;;;;;44.50;39.00;;;;;8.35;59.15;100053.91;5040626;28;8881;-76
2022/11/28 06:50:26;;;;;;;;;47.25;41.25;;;;;8.19;59.67;100050.19;5052856;28;8838;-75
2022/11/28 06:52:55;;;;;;;;;51.00;42.25;;;;;8.07;60.56;100047.38;5083949;28;9013;-75
2022/11/28 06:55:24;;;;;;;;;44.25;40.50;;;;;7.94;61.01;100041.06;5089771;28;8990;-76
2022/11/28 06:57:53;;;;;;;;;48.50;41.75;;;;;7.83;61.15;100040.03;5086264;28;8838;-78
2022/11/28 07:00:21;;;;;;;;;40.50;38.00;;;;;7.77;61.64;100046.84;5073452;28;8846;-75
2022/11/28 07:02:51;;;;;;;;;46.50;41.00;;;;;7.80;61.48;100046.88;5079817;28;8848;-75
2022/11/28 07:05:21;;;;;;;;;44.00;39.50;;;;;7.85;61.54;100034.00;5090484;28;8939;-75
2022/11/28 07:07:50;;;;;;;;;41.50;37.50;;;;;7.91;61.54;100039.31;5103344;28;8921;-77
2022/11/28 07:10:22;;;;;;;;;40.75;37.50;;;;;8.02;60.65;100036.03;5088757;28;8940;-76
2022/11/28 07:12:53;;;;;;;;;43.25;38.25;;;;;8.12;60.83;100041.41;5123481;27;8902;-75
2022/11/28 07:15:22;;;;;;;;;48.25;39.25;;;;;8.14;60.25;100038.84;5079619;28;8854;-77
2022/11/28 07:17:53;;;;;;;;;37.80;30.60;;;;;8.24;60.25;100034.66;5090690;28;8856;-77
2022/11/28 07:20:21;;;;;;;;;40.00;35.00;;;;;8.24;59.98;100035.56;5089279;28;8859;-77
2022/11/28 07:22:50;;;;;;;;;49.75;44.00;;;;;8.33;59.94;100043.47;5071451;28;8877;-76
2022/11/28 07:25:19;;;;;;;;;43.75;40.00;;;;;8.37;59.97;100036.63;5068651;28;8870;-77
2022/11/28 07:27:47;;;;;;;;;52.50;43.25;;;;;8.56;59.61;100038.72;5070430;28;8854;-78
2022/11/28 07:30:16;;;;;;;;;49.50;42.00;;;;;8.66;59.91;100037.13;5070116;28;8847;-77
2022/11/28 07:32:45;;;;;;;;;46.50;42.00;;;;;8.79;59.39;100032.97;5068585;28;8888;-81
2022/11/28 07:35:15;;;;;;;;;44.25;39.00;;;;;8.82;59.00;100029.53;5069658;28;8854;-77
2022/11/28 07:37:43;;;;;;;;;46.50;40.25;;;;;8.92;58.40;100034.91;5067637;28;8862;-79
2022/11/28 07:40:13;;;;;;;;;44.50;40.75;;;;;8.96;58.47;100021.09;5069468;28;8850;-78
2022/11/28 07:42:41;;;;;;;;;44.00;38.25;;;;;8.94;58.73;100028.00;5067111;28;8911;-76
2022/11/28 07:45:11;;;;;;;;;44.50;37.75;;;;;9.03;58.12;100022.03;5073809;28;8935;-75
2022/11/28 07:47:39;;;;;;;;;42.75;34.25;;;;;8.94;58.44;100030.59;5080757;28;8894;-76
2022/11/28 07:50:09;;;;;;;;;52.75;41.75;;;;;8.97;58.32;100014.16;5089021;28;8856;-76
2022/11/28 07:52:39;;;;;;;;;47.75;40.25;;;;;9.00;58.58;100022.00;5046863;28;8862;-77
2022/11/28 07:55:08;;;;;;;;;52.50;44.00;;;;;9.10;58.15;100009.97;5074657;28;8826;-76
2022/11/28 07:57:36;;;;;;;;;47.25;41.00;;;;;9.25;57.85;100007.56;5059472;28;8865;-77
2022/11/28 08:00:07;;;;;;;;;47.50;40.50;;;;;9.23;57.54;100000.63;5050101;28;8857;-76
2022/11/28 08:02:39;;;;;;;;;48.75;40.25;;;;;9.14;57.72;100002.22;5046591;28;8996;-77
2022/11/28 08:05:09;;;;;;;;;52.25;43.50;;;;;9.24;58.02;99999.75;5043516;28;9714;-77
2022/11/28 08:07:39;;;;;;;;;55.50;42.75;;;;;9.50;57.30;99987.91;5061216;28;8842;-77
2022/11/28 08:10:09;;;;;;;;;52.25;44.25;;;;;9.43;57.16;99990.41;5026898;28;9088;-77
2022/11/28 08:12:37;;;;;;;;;56.75;46.75;;;;;9.51;57.24;99992.25;5030604;28;8834;-77
2022/11/28 08:15:06;;;;;;;;;46.00;39.25;;;;;9.62;56.75;99988.88;5027631;28;8841;-76
2022/11/28 08:17:35;;;;;;;;;53.00;41.75;;;;;9.62;56.82;99987.19;4993643;28;8861;-77
2022/11/28 08:20:04;;;;;;;;;59.25;46.75;;;;;9.78;56.34;99975.16;5036710;28;8873;-76
2022/11/28 08:22:33;;;;;;;;;42.00;39.50;;;;;9.80;56.35;99980.41;5003052;28;8858;-76
2022/11/28 08:25:03;;;;;;;;;50.50;40.75;;;;;9.68;56.35;99992.44;5086781;28;9008;-76
2022/11/28 08:27:32;;;;;;;;;43.60;36.00;;;;;9.85;56.66;99989.09;5085822;28;8850;-76
2022/11/28 08:30:01;;;;;;;;;50.50;40.50;;;;;9.97;55.91;99989.25;5069333;28;8974;-76
2022/11/28 08:32:30;;;;;;;;;52.75;43.25;;;;;9.95;55.85;99988.34;5086444;28;8878;-77
2022/11/28 08:34:59;;;;;;;;;47.25;40.25;;;;;10.05;55.72;99992.78;5069486;28;8828;-76
2022/11/28 08:37:28;;;;;;;;;51.00;38.75;;;;;10.14;55.40;99998.06;5086185;28;8882;-76
2022/11/28 08:39:57;;;;;;;;;56.75;41.00;;;;;10.19;55.59;100005.03;5068922;28;8867;-77
2022/11/28 08:42:27;;;;;;;;;55.00;43.25;;;;;10.43;54.63;100014.84;5080207;28;8878;-78
2022/11/28 08:44:56;;;;;;;;;53.25;43.50;;;;;10.64;54.28;100019.34;5069269;28;8931;-77
2022/11/28 08:47:25;;;;;;;;;55.50;44.00;;;;;10.78;53.90;100017.69;5072766;28;8886;-76
2022/11/28 08:49:53;;;;;;;;;53.50;43.75;;;;;10.86;53.37;100015.13;5095333;28;8871;-76
2022/11/28 08:52:22;;;;;;;;;56.75;44.00;;;;;11.01;53.44;100012.59;5087559;28;9869;-77
2022/11/28 08:54:51;;;;;;;;;48.50;42.00;;;;;11.09;53.52;100013.50;5076279;28;8839;-78
2022/11/28 08:57:19;;;;;;;;;49.00;41.25;;;;;11.18;52.21;100022.25;5068811;28;8897;-77
2022/11/28 08:59:50;;;;;;;;;60.50;44.00;;;;;11.28;52.54;100031.88;5079873;28;8990;-78
2022/11/28 09:02:18;;;;;;;;;54.00;45.00;;;;;11.29;51.91;100031.88;5034560;28;9631;-79
2022/11/28 09:04:53;;;;;;;;;56.75;42.50;;;;;11.41;51.72;100033.66;5079414;28;8875;-77
2022/11/28 09:07:21;;;;;;;;;44.25;40.75;;;;;11.25;51.89;100039.72;5084160;28;8854;-79
2022/11/28 09:09:50;;;;;;;;;48.50;39.75;;;;;11.38;51.36;100033.66;5076922;28;8867;-79
2022/11/28 09:12:18;;;;;;;;;48.50;40.25;;;;;11.37;51.46;100031.03;5065108;28;8966;-77
2022/11/28 09:14:47;;;;;;;;;34.50;33.50;;;;;11.47;51.62;100025.88;5065190;28;8878;-78
2022/11/28 09:17:17;;;;;;;;;53.00;41.25;;;;;11.55;51.43;100023.28;5048570;28;9660;-79
2022/11/28 09:19:46;;;;;;;;;44.75;39.75;;;;;11.37;51.20;100020.59;5048235;28;8892;-79
2022/11/28 09:22:14;;;;;;;;;54.50;42.25;;;;;11.54;51.14;100025.88;5034438;28;8866;-76
2022/11/28 09:24:43;;;;;;;;;41.75;39.50;;;;;11.55;50.19;100025.00;5046474;28;8948;-77
2022/11/28 09:27:12;;;;;;;;;46.00;37.00;;;;;11.64;50.26;100032.88;5064996;28;8875;-78
2022/11/28 09:29:40;;;;;;;;;45.25;38.00;;;;;11.74;49.95;100031.16;5065461;28;8878;-77
2022/11/28 09:32:10;;;;;;;;;43.50;36.50;;;;;11.85;50.23;100030.31;5068549;28;8962;-78
2022/11/28 09:34:40;;;;;;;;;53.75;42.50;;;;;11.95;49.55;100026.03;5057986;28;8851;-78
2022/11/28 09:37:09;;;;;;;;;47.75;39.25;;;;;12.01;50.14;100017.31;5050176;28;8875;-80
2022/11/28 09:39:38;;;;;;;;;44.75;39.50;;;;;12.17;49.73;100013.81;5050676;28;8960;-79
2022/11/28 09:42:32;;;;;;;;;48.50;39.50;;;;;12.15;48.50;100012.09;5060638;28;8852;-77
2022/11/28 09:45:05;;;;;;;;;36.20;34.80;;;;;12.20;48.22;100007.75;5064265;28;8867;-79
2022/11/28 09:47:37;;;;;;;;;39.80;35.40;;;;;12.16;47.75;100004.25;5068561;28;8870;-78
2022/11/28 09:50:14;;;;;;;;;40.50;35.50;;;;;12.15;47.63;100001.63;5061609;28;9565;-78
2022/11/28 09:52:49;;;;;;;;;31.20;28.80;;;;;12.26;47.74;99992.03;5089235;28;8848;-78
2022/11/28 09:55:29;;;;;;;;;44.40;38.20;;;;;12.31;47.58;99992.06;5084266;28;8868;-77
2022/11/28 09:57:59;;;;;;;;;39.00;35.00;;;;;12.31;47.22;99982.47;5069672;28;8846;-79
2022/11/28 10:00:34;;;;;;;;;44.40;37.00;;;;;12.48;47.48;99985.94;5067967;28;8850;-77
2022/11/28 10:03:22;;;;;;;;;36.20;34.60;;;;;12.57;46.56;99978.94;5082367;28;8874;-80
2022/11/28 10:06:01;;;;;;;;;33.80;33.00;;;;;12.50;46.30;99975.47;5103282;28;8848;-80
2022/11/28 10:08:43;;;;;;;;;42.00;38.20;;;;;12.52;47.24;99976.34;5089987;28;9964;-79
2022/11/28 10:11:23;;;;;;;;;36.20;33.60;;;;;12.48;47.19;99974.59;5090732;28;9625;-79
2022/11/28 10:14:03;;;;;;;;;31.60;29.20;;;;;12.50;46.73;99977.22;5084610;28;8869;-80
2022/11/28 10:16:52;;;;;;;;;34.60;31.40;;;;;12.49;46.36;99976.34;5084069;28;8856;-80
2022/11/28 10:19:32;;;;;;;;;34.00;31.20;;;;;12.27;45.88;99972.88;5081145;28;8848;-80
2022/11/28 10:22:37;;;;;;;;;32.00;29.80;;;;;12.32;45.86;99978.09;5091737;28;8832;-80
2022/11/28 10:25:16;;;;;;;;;33.80;32.20;;;;;12.15;46.10;99975.50;5077138;28;8921;-77
2022/11/28 10:27:47;;;;;;;;;34.00;31.60;;;;;12.08;46.92;99985.09;5073699;28;8870;-78
2022/11/28 10:30:20;;;;;;;;;38.60;34.40;;;;;12.09;46.42;99977.22;5084462;28;8859;-78
2022/11/28 10:32:59;;;;;;;;;35.00;32.80;;;;;12.18;46.45;99972.88;5070756;28;9837;-79
2022/11/28 10:35:35;;;;;;;;;33.80;31.40;;;;;12.19;46.68;99969.38;5120286;27;8928;-79
2022/11/28 10:38:11;;;;;;;;;33.60;30.60;;;;;12.22;46.78;99966.78;5106686;28;8847;-78
2022/11/28 10:40:46;;;;;;;;;41.80;35.40;;;;;12.24;46.84;99965.03;5079621;28;9012;-78
2022/11/28 10:43:29;;;;;;;;;35.40;31.80;;;;;12.18;46.70;99954.59;5070382;28;8846;-77
2022/11/28 10:46:21;;;;;;;;;31.00;26.40;;;;;12.14;45.93;99950.22;5071185;28;8855;-80
2022/11/28 10:48:57;;;;;;;;;31.40;29.40;;;;;12.17;46.09;99956.31;5066365;28;8897;-77
2022/11/28 10:51:34;;;;;;;;;40.80;35.60;;;;;12.29;46.08;99947.59;5050417;28;9639;-80
2022/11/28 10:54:22;;;;;;;;;39.60;35.60;;;;;12.26;46.21;99947.59;5067533;28;8856;-80
2022/11/28 10:57:01;;;;;;;;;30.40;28.80;;;;;12.11;46.04;99951.09;5059747;28;8828;-78
2022/11/28 10:59:41;;;;;;;;;38.80;36.40;;;;;11.85;46.70;99949.31;5056512;28;8982;-79
2022/11/28 11:02:20;;;;;;;;;25.00;22.00;;;;;11.93;47.41;99943.22;5067580;28;9014;-80
2022/11/28 11:04:49;;;;;;;;;38.00;36.40;;;;;11.86;47.49;99947.56;5050329;28;8855;-78
2022/11/28 11:07:25;;;;;;;;;42.20;36.20;;;;;11.73;47.10;99945.81;5050743;28;8864;-79
2022/11/28 11:10:15;;;;;;;;;34.00;30.20;;;;;11.79;47.14;99946.69;5044772;28;8856;-81
2022/11/28 11:13:14;;;;;;;;;38.60;34.80;;;;;11.83;46.84;99948.44;4975858;28;8839;-78
2022/11/28 11:15:45;;;;;;;;;39.00;35.00;;;;;11.77;47.43;99945.81;5022135;28;8858;-78
2022/11/28 11:18:26;;;;;;;;;29.80;28.40;;;;;12.01;47.05;99939.75;5006797;28;8870;-79
2022/11/28 11:21:08;;;;;;;;;35.60;34.60;;;;;11.89;47.50;99935.41;5014261;28;8850;-78
2022/11/28 11:23:36;;;;;;;;;33.20;29.40;;;;;11.90;46.47;99936.28;4994799;28;8858;-79
2022/11/28 11:26:09;;;;;;;;;39.00;36.20;;;;;11.98;46.44;99928.44;5008282;28;8866;-78
2022/11/28 11:28:44;;;;;;;;;34.40;34.00;;;;;12.00;46.79;99932.81;4988788;28;8853;-76
2022/11/28 11:31:21;;;;;;;;;39.00;36.60;;;;;11.94;46.44;99921.47;5074104;28;8859;-78
2022/11/28 11:33:53;;;;;;;;;41.00;36.40;;;;;12.02;45.50;99915.38;5094012;28;8856;-79
2022/11/28 11:36:28;;;;;;;;;18.60;16.80;;;;;11.93;46.45;99915.38;5092279;28;8928;-79
2022/11/28 11:39:15;;;;;;;;;38.80;34.80;;;;;12.07;45.56;99912.75;5089348;28;8863;-78
2022/11/28 11:41:47;;;;;;;;;25.40;24.20;;;;;12.08;45.57;99907.53;5051732;28;8847;-75
2022/11/28 11:44:28;;;;;;;;;29.20;24.80;;;;;12.02;45.26;99910.16;5122963;27;8847;-77
2022/11/28 11:46:59;;;;;;;;;34.80;31.20;;;;;12.13;44.97;99907.50;5081434;28;8798;-78
2022/11/28 11:49:30;;;;;;;;;31.40;27.80;;;;;12.07;45.02;99903.16;5084272;28;8850;-79